createdAt,value
2023-02-27T00:00:14.619Z,100.00
2023-02-27T00:02:47.499Z,100.00
2023-02-27T00:05:14.765Z,100.00
2023-02-27T00:07:44.045Z,100.00
2023-02-27T00:10:12.544Z,100.00
2023-02-27T00:12:39.342Z,100.00
2023-02-27T00:15:10.901Z,100.00
2023-02-27T00:17:38.284Z,100.00
2023-02-27T00:20:07.231Z,100.00
2023-02-27T00:22:33.912Z,100.00
2023-02-27T00:25:00.447Z,100.00
2023-02-27T00:27:27.024Z,100.00
2023-02-27T00:29:53.459Z,100.00
2023-02-27T00:32:20.005Z,100.00
2023-02-27T00:34:47.097Z,100.00
2023-02-27T00:37:13.994Z,100.00
2023-02-27T00:39:40.450Z,100.00
2023-02-27T00:42:07.154Z,100.00
2023-02-27T00:44:33.765Z,100.00
2023-02-27T00:47:00.481Z,100.00
2023-02-27T00:49:27.073Z,100.00
2023-02-27T00:51:53.603Z,100.00
2023-02-27T00:54:20.812Z,100.00
2023-02-27T00:56:47.345Z,100.00
2023-02-27T00:59:13.912Z,100.00
2023-02-27T01:01:40.611Z,100.00
2023-02-27T01:04:07.551Z,100.00
2023-02-27T01:06:34.185Z,100.00
2023-02-27T01:09:00.760Z,100.00
2023-02-27T01:11:27.613Z,100.00
2023-02-27T01:13:54.500Z,100.00
2023-02-27T01:16:20.977Z,100.00
2023-02-27T01:18:47.542Z,100.00
2023-02-27T01:21:15.564Z,100.00
2023-02-27T01:23:44.984Z,100.00
2023-02-27T01:26:11.937Z,100.00
2023-02-27T01:28:38.605Z,100.00
2023-02-27T01:31:05.262Z,100.00
2023-02-27T01:33:31.945Z,100.00
2023-02-27T01:36:00.379Z,100.00
2023-02-27T01:38:26.851Z,100.00
2023-02-27T01:40:53.417Z,100.00
2023-02-27T01:43:21.861Z,100.00
2023-02-27T01:45:49.253Z,100.00
2023-02-27T01:48:26.765Z,100.00
2023-02-27T01:50:58.387Z,100.00
2023-02-27T01:53:28.620Z,100.00
2023-02-27T01:55:59.220Z,100.00
2023-02-27T01:58:27.054Z,100.00
2023-02-27T02:00:54.653Z,100.00
2023-02-27T02:03:37.518Z,100.00
2023-02-27T02:06:06.049Z,100.00
2023-02-27T02:08:36.925Z,100.00
2023-02-27T02:11:04.032Z,100.00
2023-02-27T02:13:31.633Z,100.00
2023-02-27T02:16:12.248Z,100.00
2023-02-27T02:19:13.638Z,100.00
2023-02-27T02:21:40.048Z,100.00
2023-02-27T02:24:44.141Z,100.00
2023-02-27T02:27:19.923Z,100.00
2023-02-27T02:30:08.380Z,100.00
2023-02-27T02:33:03.103Z,100.00
2023-02-27T02:35:51.462Z,100.00
2023-02-27T02:38:36.852Z,100.00
2023-02-27T02:41:20.603Z,100.00
2023-02-27T02:44:24.313Z,100.00
2023-02-27T02:47:19.563Z,100.00
2023-02-27T02:50:13.182Z,100.00
2023-02-27T02:52:58.796Z,100.00
2023-02-27T02:55:43.704Z,100.00
2023-02-27T02:58:24.941Z,100.00
2023-02-27T03:01:03.471Z,100.00
2023-02-27T03:03:39.322Z,100.00
2023-02-27T03:06:11.658Z,100.00
2023-02-27T03:08:46.380Z,100.00
2023-02-27T03:11:13.228Z,100.00
2023-02-27T03:13:56.549Z,100.00
2023-02-27T03:16:41.225Z,100.00
2023-02-27T03:19:21.080Z,100.00
2023-02-27T03:22:02.729Z,100.00
2023-02-27T03:24:39.938Z,100.00
2023-02-27T03:27:09.135Z,100.00
2023-02-27T03:29:46.592Z,100.00
2023-02-27T03:32:18.775Z,100.00
2023-02-27T03:34:45.950Z,100.00
2023-02-27T03:37:25.008Z,100.00
2023-02-27T03:40:01.352Z,100.00
2023-02-27T03:42:41.796Z,100.00
2023-02-27T03:45:19.536Z,100.00
2023-02-27T03:47:46.589Z,100.00
2023-02-27T03:50:13.403Z,100.00
2023-02-27T03:52:40.994Z,100.00
2023-02-27T03:55:18.257Z,100.00
2023-02-27T03:57:48.009Z,100.00
2023-02-27T04:00:19.294Z,100.00
2023-02-27T04:02:50.490Z,100.00
2023-02-27T04:05:21.797Z,100.00
2023-02-27T04:08:02.949Z,100.00
2023-02-27T04:10:41.440Z,100.00
2023-02-27T04:13:29.632Z,100.00
2023-02-27T04:16:15.727Z,100.00
2023-02-27T04:19:16.367Z,100.00
2023-02-27T04:21:48.773Z,100.00
2023-02-27T04:24:51.032Z,100.00
2023-02-27T04:27:35.803Z,100.00
2023-02-27T04:30:10.433Z,100.00
2023-02-27T04:32:39.942Z,100.00
2023-02-27T04:35:15.613Z,100.00
2023-02-27T04:38:05.403Z,100.00
2023-02-27T04:40:43.833Z,100.00
2023-02-27T04:43:14.857Z,100.00
2023-02-27T04:45:44.810Z,100.00
2023-02-27T04:48:20.789Z,100.00
2023-02-27T04:50:53.950Z,100.00
2023-02-27T04:53:37.669Z,100.00
2023-02-27T04:56:10.462Z,100.00
2023-02-27T04:58:41.863Z,100.00
2023-02-27T05:01:26.388Z,100.00
2023-02-27T05:03:55.169Z,100.00
2023-02-27T05:06:27.395Z,100.00
2023-02-27T05:08:59.574Z,100.00
2023-02-27T05:11:49.143Z,100.00
2023-02-27T05:14:21.642Z,100.00
2023-02-27T05:16:54.142Z,100.00
2023-02-27T05:19:21.081Z,100.00
2023-02-27T05:22:11.072Z,100.00
2023-02-27T05:25:00.230Z,100.00
2023-02-27T05:27:46.866Z,100.00
2023-02-27T05:30:38.809Z,100.00
2023-02-27T05:33:13.593Z,100.00
2023-02-27T05:35:49.053Z,100.00
2023-02-27T05:38:25.548Z,100.00
2023-02-27T05:41:03.736Z,100.00
2023-02-27T05:43:42.317Z,100.00
2023-02-27T05:46:17.342Z,100.00
2023-02-27T05:48:59.623Z,100.00
2023-02-27T05:51:29.737Z,100.00
2023-02-27T05:54:39.963Z,100.00
2023-02-27T05:57:10.385Z,100.00
2023-02-27T05:59:55.207Z,100.00
2023-02-27T06:02:21.815Z,100.00
2023-02-27T06:04:48.558Z,100.00
2023-02-27T06:07:15.988Z,100.00
2023-02-27T06:09:44.394Z,100.00
2023-02-27T06:12:10.897Z,100.00
2023-02-27T06:14:37.355Z,100.00
2023-02-27T06:17:03.980Z,100.00
2023-02-27T06:19:30.497Z,100.00
2023-02-27T06:21:56.922Z,100.00
2023-02-27T06:24:23.346Z,100.00
2023-02-27T06:26:51.924Z,100.00
2023-02-27T06:29:18.421Z,100.00
2023-02-27T06:31:44.889Z,100.00
2023-02-27T06:34:11.565Z,100.00
2023-02-27T06:36:37.996Z,100.00
2023-02-27T06:39:04.931Z,100.00
2023-02-27T06:41:31.473Z,100.00
2023-02-27T06:43:58.117Z,100.00
2023-02-27T06:46:24.898Z,100.00
2023-02-27T06:48:51.595Z,100.00
2023-02-27T06:51:18.102Z,100.00
2023-02-27T06:53:44.680Z,100.00
2023-02-27T06:56:11.127Z,100.00
2023-02-27T06:58:37.641Z,100.00
2023-02-27T07:01:04.227Z,100.00
2023-02-27T07:03:30.796Z,100.00
2023-02-27T07:05:58.569Z,100.00
2023-02-27T07:08:25.097Z,100.00
2023-02-27T07:10:51.554Z,100.00
2023-02-27T07:13:19.711Z,100.00
2023-02-27T07:15:46.595Z,100.00
2023-02-27T07:18:13.177Z,100.00
2023-02-27T07:20:40.228Z,100.00
2023-02-27T07:23:06.894Z,100.00
2023-02-27T07:25:33.345Z,100.00
2023-02-27T07:27:59.801Z,100.00
2023-02-27T07:30:26.619Z,100.00
2023-02-27T07:32:55.370Z,100.00
2023-02-27T07:35:22.650Z,100.00
2023-02-27T07:37:49.174Z,100.00
2023-02-27T07:40:15.724Z,100.00
2023-02-27T07:42:42.420Z,100.00
2023-02-27T07:45:09.903Z,100.00
2023-02-27T07:47:36.865Z,100.00
2023-02-27T07:50:04.782Z,100.00
2023-02-27T07:52:32.429Z,100.00
2023-02-27T07:54:58.891Z,100.00
2023-02-27T07:57:25.466Z,100.00
2023-02-27T07:59:51.979Z,100.00
2023-02-27T08:02:19.029Z,100.00
2023-02-27T08:04:45.654Z,100.00
2023-02-27T08:07:12.110Z,100.00
2023-02-27T08:09:38.572Z,100.00
2023-02-27T08:12:05.222Z,100.00
2023-02-27T08:14:31.749Z,100.00
2023-02-27T08:17:02.983Z,100.00
2023-02-27T08:19:30.592Z,100.00
2023-02-27T08:21:59.462Z,100.00
2023-02-27T08:24:26.093Z,100.00
2023-02-27T08:26:52.546Z,100.00
2023-02-27T08:29:21.555Z,100.00
2023-02-27T08:31:57.218Z,100.00
2023-02-27T08:34:23.785Z,100.00
2023-02-27T08:36:50.405Z,100.00
2023-02-27T08:39:20.130Z,100.00
2023-02-27T08:41:52.799Z,100.00
2023-02-27T08:44:21.114Z,100.00
2023-02-27T08:46:48.682Z,100.00
2023-02-27T08:49:15.286Z,100.00
2023-02-27T08:51:49.163Z,100.00
2023-02-27T08:54:16.199Z,100.00
2023-02-27T08:56:44.562Z,100.00
2023-02-27T08:59:13.265Z,100.00
2023-02-27T09:01:40.230Z,100.00
2023-02-27T09:04:08.386Z,100.00
2023-02-27T09:06:37.332Z,100.00
2023-02-27T09:09:07.324Z,100.00
2023-02-27T09:11:34.132Z,100.00
2023-02-27T09:14:06.188Z,100.00
2023-02-27T09:16:32.779Z,100.00
2023-02-27T09:18:59.509Z,100.00
2023-02-27T09:21:27.183Z,100.00
2023-02-27T09:24:02.622Z,100.00
2023-02-27T09:26:44.311Z,100.00
2023-02-27T09:29:12.526Z,99.56
2023-02-27T09:31:40.798Z,100.00
2023-02-27T09:34:07.749Z,100.00
2023-02-27T09:36:34.232Z,99.29
2023-02-27T09:39:00.901Z,99.58
2023-02-27T09:41:52.397Z,99.43
2023-02-27T09:44:46.672Z,100.00
2023-02-27T09:47:30.265Z,100.00
2023-02-27T09:50:04.193Z,100.00
2023-02-27T09:52:32.868Z,100.00
2023-02-27T09:54:59.633Z,99.89
2023-02-27T09:58:02.064Z,100.00
2023-02-27T10:00:40.587Z,100.00
2023-02-27T10:03:12.929Z,100.00
2023-02-27T10:05:49.654Z,100.00
2023-02-27T10:08:39.118Z,100.00
2023-02-27T10:11:13.795Z,100.00
2023-02-27T10:14:25.847Z,100.00
2023-02-27T10:16:54.003Z,100.00
2023-02-27T10:19:28.787Z,99.20
2023-02-27T10:21:58.125Z,99.42
2023-02-27T10:24:40.404Z,96.34
2023-02-27T10:27:15.844Z,96.00
2023-02-27T10:29:42.765Z,96.13
2023-02-27T10:32:24.884Z,97.62
2023-02-27T10:35:05.437Z,95.85
2023-02-27T10:37:32.575Z,95.50
2023-02-27T10:40:04.439Z,93.52
2023-02-27T10:42:38.248Z,92.06
2023-02-27T10:45:06.004Z,92.77
2023-02-27T10:47:32.709Z,87.06
2023-02-27T10:50:00.331Z,87.43
2023-02-27T10:52:26.949Z,86.07
2023-02-27T10:54:53.647Z,86.99
2023-02-27T10:57:40.917Z,85.85
2023-02-27T11:00:23.173Z,83.74
2023-02-27T11:02:52.202Z,79.69
2023-02-27T11:05:24.765Z,80.58
2023-02-27T11:07:51.692Z,81.74
2023-02-27T11:10:22.073Z,78.68
2023-02-27T11:13:02.797Z,77.61
2023-02-27T11:15:32.585Z,77.51
2023-02-27T11:18:31.345Z,77.66
2023-02-27T11:21:30.013Z,77.67
2023-02-27T11:24:08.808Z,76.21
2023-02-27T11:26:38.913Z,77.10
2023-02-27T11:29:17.281Z,76.98
2023-02-27T11:32:13.494Z,75.87
2023-02-27T11:34:47.830Z,77.03
2023-02-27T11:37:35.723Z,77.95
2023-02-27T11:40:14.513Z,78.13
2023-02-27T11:42:51.081Z,75.19
2023-02-27T11:46:05.244Z,77.87
2023-02-27T11:48:17.472Z,72.13
2023-02-27T11:51:09.244Z,75.67
2023-02-27T11:54:00.308Z,73.07
2023-02-27T11:56:35.759Z,70.75
2023-02-27T11:59:13.605Z,71.30
2023-02-27T12:01:50.153Z,68.21
2023-02-27T12:04:24.232Z,68.78
2023-02-27T12:07:10.727Z,66.82
2023-02-27T12:10:01.930Z,69.38
2023-02-27T12:12:36.476Z,73.88
2023-02-27T12:15:16.634Z,74.37
2023-02-27T12:17:58.133Z,76.20
2023-02-27T12:20:43.367Z,75.04
2023-02-27T12:23:19.477Z,77.79
2023-02-27T12:25:52.636Z,74.74
2023-02-27T12:28:43.302Z,76.70
2023-02-27T12:31:35.939Z,77.06
2023-02-27T12:34:12.824Z,77.71
2023-02-27T12:36:39.317Z,77.15
2023-02-27T12:39:22.508Z,77.66
2023-02-27T12:42:33.095Z,76.96
2023-02-27T12:45:02.664Z,77.07
2023-02-27T12:48:06.806Z,74.32
2023-02-27T12:50:56.056Z,75.28
2023-02-27T12:54:08.212Z,75.00
2023-02-27T12:56:50.442Z,73.32
2023-02-27T12:59:39.960Z,73.65
2023-02-27T13:02:35.801Z,73.06
2023-02-27T13:05:29.893Z,73.84
2023-02-27T13:08:34.010Z,73.28
2023-02-27T13:11:11.287Z,68.54
2023-02-27T13:13:48.817Z,72.35
2023-02-27T13:16:19.854Z,72.34
2023-02-27T13:18:58.850Z,70.48
2023-02-27T13:21:25.981Z,73.61
2023-02-27T13:24:01.986Z,72.98
2023-02-27T13:26:38.225Z,69.51
2023-02-27T13:29:06.408Z,68.93
2023-02-27T13:32:04.924Z,69.03
2023-02-27T13:34:46.494Z,70.50
2023-02-27T13:37:12.960Z,69.13
2023-02-27T13:39:39.767Z,69.42
2023-02-27T13:42:35.556Z,69.81
2023-02-27T13:45:05.133Z,69.57
2023-02-27T13:47:40.727Z,70.07
2023-02-27T13:50:21.103Z,72.07
2023-02-27T13:52:47.946Z,70.83
2023-02-27T13:55:28.484Z,71.56
2023-02-27T13:57:58.867Z,73.72
2023-02-27T14:00:29.055Z,71.03
2023-02-27T14:03:00.469Z,73.24
2023-02-27T14:05:35.873Z,71.20
2023-02-27T14:08:23.266Z,72.33
2023-02-27T14:11:29.029Z,72.34
2023-02-27T14:13:57.607Z,73.25
2023-02-27T14:16:39.856Z,75.21
2023-02-27T14:19:17.142Z,74.55
2023-02-27T14:22:01.154Z,75.34
2023-02-27T14:25:01.131Z,75.02
2023-02-27T14:27:48.044Z,76.03
2023-02-27T14:30:40.892Z,75.09
2023-02-27T14:33:33.372Z,74.64
2023-02-27T14:36:10.859Z,76.08
2023-02-27T14:38:39.067Z,75.85
2023-02-27T14:41:48.234Z,76.45
2023-02-27T14:44:45.735Z,71.43
2023-02-27T14:47:24.494Z,72.75
2023-02-27T14:49:51.586Z,73.83
2023-02-27T14:52:29.696Z,73.50
2023-02-27T14:55:29.534Z,73.09
2023-02-27T14:58:27.061Z,72.84
2023-02-27T15:01:10.192Z,73.08
2023-02-27T15:03:49.230Z,72.38
2023-02-27T15:06:19.380Z,73.58
2023-02-27T15:08:57.428Z,74.06
2023-02-27T15:11:25.375Z,74.13
2023-02-27T15:14:59.219Z,73.80
2023-02-27T15:17:39.173Z,73.51
2023-02-27T15:20:30.075Z,73.66
2023-02-27T15:22:58.021Z,75.86
2023-02-27T15:25:37.330Z,75.18
2023-02-27T15:28:23.023Z,77.05
2023-02-27T15:30:53.695Z,77.01
2023-02-27T15:33:28.303Z,75.05
2023-02-27T15:35:55.980Z,74.75
2023-02-27T15:38:35.254Z,77.31
2023-02-27T15:41:03.703Z,74.72
2023-02-27T15:43:31.152Z,74.76
2023-02-27T15:45:58.400Z,78.06
2023-02-27T15:48:25.693Z,76.40
2023-02-27T15:50:56.700Z,77.22
2023-02-27T15:53:25.776Z,79.08
2023-02-27T15:55:57.919Z,75.47
2023-02-27T15:58:29.584Z,76.93
2023-02-27T16:01:02.601Z,76.93
2023-02-27T16:03:34.787Z,76.63
2023-02-27T16:06:01.517Z,78.67
2023-02-27T16:08:56.358Z,79.39
2023-02-27T16:11:31.912Z,77.76
2023-02-27T16:13:59.284Z,76.65
2023-02-27T16:16:34.953Z,78.05
2023-02-27T16:19:24.367Z,76.66
2023-02-27T16:22:13.735Z,76.15
2023-02-27T16:24:40.867Z,77.37
2023-02-27T16:27:25.811Z,77.29
2023-02-27T16:29:56.687Z,78.43
2023-02-27T16:32:56.442Z,79.50
2023-02-27T16:35:23.732Z,79.79
2023-02-27T16:37:51.407Z,80.14
2023-02-27T16:40:27.335Z,80.73
2023-02-27T16:42:57.271Z,80.54
2023-02-27T16:45:26.513Z,81.62
2023-02-27T16:47:56.948Z,80.78
2023-02-27T16:50:38.608Z,81.18
2023-02-27T16:53:06.880Z,83.34
2023-02-27T16:55:33.926Z,82.79
2023-02-27T16:58:00.663Z,83.35
2023-02-27T17:00:27.130Z,83.39
2023-02-27T17:02:54.716Z,82.64
2023-02-27T17:05:21.236Z,82.55
2023-02-27T17:07:48.663Z,82.34
2023-02-27T17:10:17.189Z,84.82
2023-02-27T17:12:44.125Z,83.53
2023-02-27T17:15:10.867Z,85.03
2023-02-27T17:17:37.735Z,84.85
2023-02-27T17:20:07.218Z,84.64
2023-02-27T17:22:39.390Z,84.84
2023-02-27T17:25:07.442Z,83.45
2023-02-27T17:27:34.229Z,83.26
2023-02-27T17:30:00.794Z,85.23
2023-02-27T17:32:27.304Z,82.75
2023-02-27T17:34:55.223Z,83.62
2023-02-27T17:37:22.122Z,82.84
2023-02-27T17:39:49.193Z,82.33
2023-02-27T17:42:18.461Z,84.14
2023-02-27T17:44:46.386Z,84.59
2023-02-27T17:47:13.433Z,83.96
2023-02-27T17:49:40.055Z,86.29
2023-02-27T17:52:09.513Z,88.68
2023-02-27T17:54:36.140Z,87.04
2023-02-27T17:57:04.725Z,89.50
2023-02-27T17:59:31.623Z,84.92
2023-02-27T18:01:58.518Z,84.59
2023-02-27T18:04:25.520Z,85.76
2023-02-27T18:06:52.037Z,86.28
2023-02-27T18:09:18.472Z,86.71
2023-02-27T18:11:44.964Z,87.80
2023-02-27T18:14:11.474Z,87.47
2023-02-27T18:16:38.022Z,88.60
2023-02-27T18:19:06.436Z,88.59
2023-02-27T18:21:33.397Z,88.37
2023-02-27T18:24:00.260Z,88.00
2023-02-27T18:26:31.158Z,89.33
2023-02-27T18:29:04.233Z,89.12
2023-02-27T18:31:34.255Z,90.11
2023-02-27T18:34:01.338Z,89.03
2023-02-27T18:36:29.393Z,89.49
2023-02-27T18:38:56.405Z,90.84
2023-02-27T18:41:22.921Z,91.00
2023-02-27T18:43:49.690Z,89.53
2023-02-27T18:46:16.623Z,90.22
2023-02-27T18:48:44.694Z,89.69
2023-02-27T18:51:14.473Z,89.82
2023-02-27T18:53:44.237Z,91.97
2023-02-27T18:56:11.777Z,92.38
2023-02-27T18:58:38.396Z,93.42
2023-02-27T19:01:07.250Z,95.96
2023-02-27T19:03:35.596Z,96.17
2023-02-27T19:06:03.455Z,96.67
2023-02-27T19:08:30.360Z,99.23
2023-02-27T19:10:57.508Z,100.00
2023-02-27T19:13:26.243Z,100.00
2023-02-27T19:15:53.542Z,100.00
2023-02-27T19:18:21.207Z,100.00
2023-02-27T19:20:47.955Z,100.00
2023-02-27T19:23:14.405Z,100.00
2023-02-27T19:25:42.493Z,100.00
2023-02-27T19:28:11.045Z,100.00
2023-02-27T19:30:39.515Z,100.00
2023-02-27T19:33:06.074Z,100.00
2023-02-27T19:35:32.599Z,100.00
2023-02-27T19:37:59.130Z,100.00
2023-02-27T19:40:26.501Z,100.00
2023-02-27T19:42:52.973Z,100.00
2023-02-27T19:45:21.541Z,100.00
2023-02-27T19:47:47.967Z,100.00
2023-02-27T19:50:14.891Z,100.00
2023-02-27T19:52:41.348Z,100.00
2023-02-27T19:55:08.503Z,100.00
2023-02-27T19:57:36.829Z,100.00
2023-02-27T20:00:08.640Z,100.00
2023-02-27T20:02:41.971Z,100.00
2023-02-27T20:05:08.943Z,100.00
2023-02-27T20:07:35.404Z,100.00
2023-02-27T20:10:01.899Z,100.00
2023-02-27T20:12:28.689Z,100.00
2023-02-27T20:14:55.148Z,100.00
2023-02-27T20:17:21.627Z,100.00
2023-02-27T20:19:48.072Z,99.33
2023-02-27T20:22:15.866Z,99.65
2023-02-27T20:24:44.662Z,100.00
2023-02-27T20:27:12.211Z,99.30
2023-02-27T20:29:38.831Z,100.00
2023-02-27T20:32:05.447Z,99.03
2023-02-27T20:34:32.031Z,95.87
2023-02-27T20:36:59.793Z,96.93
2023-02-27T20:39:27.885Z,97.16
2023-02-27T20:41:54.338Z,98.16
2023-02-27T20:44:20.801Z,98.78
2023-02-27T20:46:49.300Z,97.42
2023-02-27T20:49:20.745Z,97.83
2023-02-27T20:51:47.411Z,98.46
2023-02-27T20:54:20.079Z,97.95
2023-02-27T20:56:48.395Z,98.17
2023-02-27T20:59:16.612Z,98.14
2023-02-27T21:01:51.150Z,100.00
2023-02-27T21:04:42.406Z,100.00
2023-02-27T21:07:14.626Z,100.00
2023-02-27T21:09:41.464Z,99.07
2023-02-27T21:12:09.190Z,100.00
2023-02-27T21:14:36.319Z,99.18
2023-02-27T21:17:06.787Z,98.79
2023-02-27T21:19:33.463Z,98.84
2023-02-27T21:22:00.160Z,96.85
2023-02-27T21:24:26.652Z,95.90
2023-02-27T21:26:53.187Z,96.73
2023-02-27T21:29:21.227Z,98.29
2023-02-27T21:31:49.570Z,98.29
2023-02-27T21:34:25.319Z,99.39
2023-02-27T21:36:52.553Z,97.99
2023-02-27T21:39:25.895Z,97.69
2023-02-27T21:41:53.137Z,97.63
2023-02-27T21:44:24.838Z,96.81
2023-02-27T21:46:52.192Z,97.81
2023-02-27T21:49:22.549Z,97.45
2023-02-27T21:51:49.892Z,97.14
2023-02-27T21:54:17.391Z,97.59
2023-02-27T21:56:45.258Z,97.29
2023-02-27T21:59:12.259Z,98.34
2023-02-27T22:01:38.848Z,98.49
2023-02-27T22:04:06.362Z,99.33
2023-02-27T22:06:34.154Z,98.36
2023-02-27T22:09:04.959Z,97.87
2023-02-27T22:11:32.796Z,98.82
2023-02-27T22:13:59.245Z,98.83
2023-02-27T22:16:25.747Z,97.29
2023-02-27T22:18:52.832Z,97.59
2023-02-27T22:21:23.366Z,98.74
2023-02-27T22:23:52.575Z,98.36
2023-02-27T22:26:25.130Z,98.00
2023-02-27T22:28:59.303Z,97.10
2023-02-27T22:31:28.980Z,99.21
2023-02-27T22:34:00.012Z,98.23
2023-02-27T22:36:29.153Z,99.29
2023-02-27T22:38:56.770Z,98.06
2023-02-27T22:41:28.992Z,98.15
2023-02-27T22:43:57.392Z,98.51
2023-02-27T22:46:26.822Z,98.55
2023-02-27T22:48:55.473Z,99.35
2023-02-27T22:51:24.451Z,97.82
2023-02-27T22:53:51.506Z,99.01
2023-02-27T22:56:17.976Z,98.44
2023-02-27T22:58:45.473Z,98.87
2023-02-27T23:01:18.815Z,98.03
2023-02-27T23:03:47.236Z,99.13
2023-02-27T23:06:19.973Z,98.39
2023-02-27T23:08:46.635Z,99.05
2023-02-27T23:11:14.889Z,98.73
2023-02-27T23:13:41.714Z,99.96
2023-02-27T23:16:13.538Z,97.71
2023-02-27T23:18:46.066Z,99.37
2023-02-27T23:21:14.239Z,98.17
2023-02-27T23:23:40.729Z,96.97
2023-02-27T23:26:07.885Z,97.44
2023-02-27T23:28:36.709Z,97.29
2023-02-27T23:31:04.824Z,97.07
2023-02-27T23:33:31.735Z,96.23
2023-02-27T23:35:58.612Z,96.89
2023-02-27T23:38:26.544Z,96.99
2023-02-27T23:40:54.016Z,97.66
2023-02-27T23:43:40.036Z,97.08
2023-02-27T23:46:12.327Z,97.19
2023-02-27T23:48:39.320Z,97.41
2023-02-27T23:51:07.108Z,97.22
2023-02-27T23:53:35.392Z,97.72
2023-02-27T23:56:11.625Z,97.37
2023-02-27T23:58:38.072Z,96.93
